createdAt,value
2023-03-26T00:03:12.970Z,100271.19
2023-03-26T00:08:15.676Z,100283.91
2023-03-26T00:13:16.997Z,100282.25
2023-03-26T00:18:22.300Z,100278.75
2023-03-26T00:23:24.106Z,100274.72
2023-03-26T00:28:26.363Z,100266.81
2023-03-26T00:33:27.981Z,100254.78
2023-03-26T00:38:29.282Z,100254.94
2023-03-26T00:43:32.903Z,100261.88
2023-03-26T00:48:44.663Z,100259.00
2023-03-26T00:53:47.918Z,100244.94
2023-03-26T00:58:50.175Z,100239.31
2023-03-26T01:04:08.343Z,100230.09
2023-03-26T01:09:15.952Z,100230.19
2023-03-26T01:14:25.242Z,100223.63
2023-03-26T01:19:45.153Z,100212.00
2023-03-26T01:24:52.866Z,100208.53
2023-03-26T01:29:55.761Z,100205.03
2023-03-26T01:35:13.112Z,100200.84
2023-03-26T01:40:26.854Z,100202.72
2023-03-26T01:45:30.406Z,100203.09
2023-03-26T01:50:31.770Z,100194.91
2023-03-26T01:55:49.510Z,100179.13
2023-03-26T02:00:57.092Z,100175.00
2023-03-26T02:06:03.473Z,100167.25
2023-03-26T02:11:13.329Z,100158.53
2023-03-26T02:16:16.552Z,100154.16
2023-03-26T02:21:20.396Z,100147.97
2023-03-26T02:26:21.867Z,100136.97
2023-03-26T02:31:26.483Z,100134.03
2023-03-26T02:36:28.491Z,100127.03
2023-03-26T02:41:29.931Z,100127.47
2023-03-26T02:46:32.515Z,100130.50
2023-03-26T02:51:37.432Z,100127.84
2023-03-26T02:56:38.850Z,100113.44
2023-03-26T03:01:42.966Z,100103.81
2023-03-26T03:06:47.124Z,100097.59
2023-03-26T03:11:48.447Z,100077.56
2023-03-26T03:16:49.854Z,100077.53
2023-03-26T03:21:51.421Z,100063.09
2023-03-26T03:26:56.367Z,100060.66
2023-03-26T03:32:00.010Z,100052.22
2023-03-26T03:37:01.405Z,100047.59
2023-03-26T03:42:02.731Z,100038.22
2023-03-26T03:47:04.041Z,100016.56
2023-03-26T03:52:05.758Z,100022.16
2023-03-26T03:57:07.164Z,100007.31
2023-03-26T04:02:08.599Z,100005.66
2023-03-26T04:07:10.149Z,99983.63
2023-03-26T04:12:11.484Z,99994.41
2023-03-26T04:17:15.874Z,99993.56
2023-03-26T04:22:18.402Z,99978.00
2023-03-26T04:27:25.464Z,99965.56
2023-03-26T04:32:29.751Z,99953.16
2023-03-26T04:37:34.461Z,99944.16
2023-03-26T04:42:37.625Z,99930.16
2023-03-26T04:47:39.600Z,99915.13
2023-03-26T04:52:42.635Z,99902.13
2023-03-26T04:57:48.354Z,99894.56
2023-03-26T05:02:50.482Z,99879.97
2023-03-26T05:07:52.246Z,99883.34
2023-03-26T05:12:53.643Z,99870.72
2023-03-26T05:17:55.713Z,99856.72
2023-03-26T05:22:57.096Z,99854.13
2023-03-26T05:27:58.420Z,99851.16
2023-03-26T05:32:59.836Z,99839.94
2023-03-26T05:38:01.266Z,99830.13
2023-03-26T05:43:03.178Z,99827.13
2023-03-26T05:48:04.622Z,99812.69
2023-03-26T05:53:05.945Z,99813.09
2023-03-26T05:58:07.375Z,99809.28
2023-03-26T06:03:12.749Z,99808.66
2023-03-26T06:08:14.316Z,99793.03
2023-03-26T06:13:16.869Z,99794.22
2023-03-26T06:18:19.532Z,99800.84
2023-03-26T06:23:20.955Z,99785.09
2023-03-26T06:28:22.495Z,99779.06
2023-03-26T06:33:24.662Z,99766.47
2023-03-26T06:38:26.057Z,99754.72
2023-03-26T06:43:27.365Z,99755.09
2023-03-26T06:48:28.770Z,99746.25
2023-03-26T06:53:30.330Z,99753.44
2023-03-26T06:58:31.688Z,99742.63
2023-03-26T07:03:33.227Z,99735.06
2023-03-26T07:08:34.588Z,99731.44
2023-03-26T07:13:37.517Z,99726.84
2023-03-26T07:18:38.933Z,99715.44
2023-03-26T07:23:40.563Z,99709.44
2023-03-26T07:29:03.988Z,99705.22
2023-03-26T07:34:09.591Z,99694.22
2023-03-26T07:39:20.282Z,99694.84
2023-03-26T07:44:40.376Z,99693.22
2023-03-26T07:49:43.333Z,99670.41
2023-03-26T07:54:44.802Z,99663.22
2023-03-26T07:59:57.421Z,99655.44
2023-03-26T08:05:05.001Z,99649.03
2023-03-26T08:10:38.004Z,99644.66
2023-03-26T08:16:08.838Z,99635.88
2023-03-26T08:21:14.107Z,99637.47
2023-03-26T08:26:31.827Z,99617.47
2023-03-26T08:31:35.034Z,99615.88
2023-03-26T08:36:36.939Z,99620.47
2023-03-26T08:41:57.092Z,99620.06
2023-03-26T08:47:16.216Z,99616.28
2023-03-26T08:52:21.446Z,99607.06
2023-03-26T08:57:41.750Z,99586.88
2023-03-26T09:02:51.838Z,99581.44
2023-03-26T09:07:59.174Z,99581.06
2023-03-26T09:13:20.819Z,99580.25
2023-03-26T09:18:41.022Z,99569.56
2023-03-26T09:23:57.870Z,99563.72
2023-03-26T09:29:05.275Z,99552.50
2023-03-26T09:34:16.053Z,99543.66
2023-03-26T09:39:37.792Z,99559.59
2023-03-26T09:44:58.015Z,99537.69
2023-03-26T09:50:02.686Z,99529.94
2023-03-26T09:55:19.611Z,99514.94
2023-03-26T10:00:23.981Z,99520.56
2023-03-26T10:05:39.066Z,99517.25
2023-03-26T10:10:40.476Z,99509.50
2023-03-26T10:15:50.780Z,99507.44
2023-03-26T10:20:59.111Z,99502.19
2023-03-26T10:26:04.349Z,99485.31
2023-03-26T10:31:26.873Z,99477.84
2023-03-26T10:36:34.257Z,99492.69
2023-03-26T10:41:41.728Z,99502.66
2023-03-26T10:47:01.894Z,99499.13
2023-03-26T10:52:06.261Z,99495.56
2023-03-26T10:57:17.034Z,99485.88
2023-03-26T11:02:30.275Z,99471.13
2023-03-26T11:07:43.735Z,99467.09
2023-03-26T11:12:48.704Z,99467.25
2023-03-26T11:17:50.056Z,99458.41
2023-03-26T11:22:51.394Z,99452.13
2023-03-26T11:27:55.940Z,99448.16
2023-03-26T11:33:01.565Z,99445.19
2023-03-26T11:38:07.558Z,99450.56
2023-03-26T11:43:11.288Z,99438.13
2023-03-26T11:48:17.624Z,99437.38
2023-03-26T11:53:20.420Z,99450.44
2023-03-26T11:58:29.834Z,99442.97
2023-03-26T12:03:33.220Z,99443.38
2023-03-26T12:08:38.316Z,99447.31
2023-03-26T12:13:53.250Z,99448.31
2023-03-26T12:19:18.729Z,99454.91
2023-03-26T12:24:29.363Z,99458.91
2023-03-26T12:29:34.568Z,99471.50
2023-03-26T12:34:37.484Z,99468.19
2023-03-26T12:40:07.250Z,99461.72
2023-03-26T12:45:02.327Z,99465.78
2023-03-26T12:50:03.936Z,99462.50
2023-03-26T12:55:17.665Z,99451.78
2023-03-26T13:00:27.701Z,99464.03
2023-03-26T13:05:50.731Z,99453.50
2023-03-26T13:11:01.733Z,99459.69
2023-03-26T13:16:16.285Z,99474.31
2023-03-26T13:21:20.627Z,99469.19
2023-03-26T13:26:37.202Z,99485.00
2023-03-26T13:31:53.305Z,99465.06
2023-03-26T13:37:06.989Z,99466.81
2023-03-26T13:42:08.483Z,99471.66
2023-03-26T13:47:12.742Z,99467.66
2023-03-26T13:52:26.469Z,99474.75
2023-03-26T13:57:31.798Z,99474.94
2023-03-26T14:02:35.854Z,99475.41
2023-03-26T14:07:41.949Z,99468.13
2023-03-26T14:12:52.291Z,99470.06
2023-03-26T14:17:58.639Z,99467.53
2023-03-26T14:23:16.345Z,99478.53
2023-03-26T14:28:36.411Z,99475.44
2023-03-26T14:33:38.518Z,99482.38
2023-03-26T14:38:39.859Z,99487.88
2023-03-26T14:43:52.505Z,99492.00
2023-03-26T14:48:53.889Z,99483.03
2023-03-26T14:53:59.078Z,99500.09
2023-03-26T14:59:29.586Z,99502.28
2023-03-26T15:04:47.162Z,99502.84
2023-03-26T15:09:49.259Z,99510.63
2023-03-26T15:15:02.764Z,99516.22
2023-03-26T15:20:26.064Z,99520.72
2023-03-26T15:25:50.378Z,99525.59
2023-03-26T15:30:57.907Z,99529.25
2023-03-26T15:35:59.286Z,99537.72
2023-03-26T15:41:00.708Z,99536.97
2023-03-26T15:46:11.125Z,99536.41
2023-03-26T15:51:24.466Z,99548.47
2023-03-26T15:56:32.877Z,99555.34
2023-03-26T16:02:02.395Z,99566.94
2023-03-26T16:07:09.498Z,99566.00
2023-03-26T16:12:16.767Z,99569.38
2023-03-26T16:17:27.705Z,99575.94
2023-03-26T16:22:56.124Z,99581.78
2023-03-26T16:28:09.687Z,99582.22
2023-03-26T16:33:15.432Z,99580.22
2023-03-26T16:38:18.447Z,99586.22
2023-03-26T16:43:26.632Z,99598.25
2023-03-26T16:48:46.868Z,99607.28
2023-03-26T16:53:54.627Z,99607.06
2023-03-26T16:59:06.705Z,99624.25
2023-03-26T17:04:23.113Z,99623.06
2023-03-26T17:09:24.632Z,99631.50
2023-03-26T17:14:31.292Z,99647.50
2023-03-26T17:19:41.856Z,99663.50
2023-03-26T17:24:54.341Z,99677.91
2023-03-26T17:30:00.328Z,99688.31
2023-03-26T17:35:02.228Z,99697.50
2023-03-26T17:40:12.237Z,99710.69
2023-03-26T17:45:20.379Z,99718.69
2023-03-26T17:50:27.464Z,99726.50
2023-03-26T17:55:37.084Z,99739.88
2023-03-26T18:00:43.015Z,99747.84
2023-03-26T18:05:45.323Z,99758.25
2023-03-26T18:11:03.455Z,99782.63
2023-03-26T18:16:17.299Z,99790.97
2023-03-26T18:21:24.967Z,99815.78
2023-03-26T18:26:38.579Z,99824.13
2023-03-26T18:31:43.212Z,99833.31
2023-03-26T18:37:04.810Z,99838.91
2023-03-26T18:42:06.670Z,99853.44
2023-03-26T18:47:09.668Z,99866.47
2023-03-26T18:52:16.820Z,99873.63
2023-03-26T18:57:21.927Z,99887.59
2023-03-26T19:02:25.156Z,99903.19
2023-03-26T19:07:26.755Z,99909.53
2023-03-26T19:12:29.805Z,99916.13
2023-03-26T19:17:39.057Z,99922.22
2023-03-26T19:22:42.340Z,99934.25
2023-03-26T19:27:43.861Z,99950.78
2023-03-26T19:32:52.318Z,99950.19
2023-03-26T19:37:56.589Z,99961.19
2023-03-26T19:42:58.225Z,99969.72
2023-03-26T19:48:13.938Z,99980.31
2023-03-26T19:53:24.100Z,99987.47
2023-03-26T19:58:26.563Z,100007.22
2023-03-26T20:03:29.902Z,100018.06
2023-03-26T20:08:31.534Z,100030.44
2023-03-26T20:13:32.886Z,100036.63
2023-03-26T20:18:34.630Z,100048.97
2023-03-26T20:23:35.966Z,100053.91
2023-03-26T20:28:47.313Z,100059.44
2023-03-26T20:33:52.129Z,100061.25
2023-03-26T20:38:53.492Z,100084.06
2023-03-26T20:43:54.863Z,100101.31
2023-03-26T20:48:57.316Z,100109.31
2023-03-26T20:53:58.758Z,100121.09
2023-03-26T20:59:10.370Z,100131.56
2023-03-26T21:04:12.946Z,100136.81
2023-03-26T21:09:17.528Z,100133.63
2023-03-26T21:14:22.422Z,100160.59
2023-03-26T21:19:24.172Z,100159.34
2023-03-26T21:24:33.192Z,100167.97
2023-03-26T21:29:34.725Z,100179.19
2023-03-26T21:34:39.643Z,100189.81
2023-03-26T21:39:44.763Z,100200.63
2023-03-26T21:44:46.199Z,100215.97
2023-03-26T21:49:47.719Z,100223.31
2023-03-26T21:54:49.190Z,100237.25
2023-03-26T22:00:16.008Z,100252.50
2023-03-26T22:05:18.480Z,100261.28
2023-03-26T22:10:20.590Z,100269.69
2023-03-26T22:15:22.090Z,100269.84
2023-03-26T22:20:28.148Z,100284.66
2023-03-26T22:25:29.468Z,100299.50
2023-03-26T22:30:32.138Z,100315.09
2023-03-26T22:35:33.535Z,100335.84
2023-03-26T22:40:34.943Z,100345.28
2023-03-26T22:45:37.738Z,100352.41
2023-03-26T22:50:39.057Z,100366.53
2023-03-26T22:55:40.368Z,100380.00
2023-03-26T23:00:41.713Z,100395.22
2023-03-26T23:05:43.185Z,100412.72
2023-03-26T23:10:47.544Z,100433.28
2023-03-26T23:15:49.908Z,100448.66
2023-03-26T23:20:58.665Z,100456.59
2023-03-26T23:26:04.600Z,100469.88
2023-03-26T23:31:07.237Z,100476.19
2023-03-26T23:36:09.194Z,100491.56
2023-03-26T23:41:14.773Z,100503.84
2023-03-26T23:46:17.918Z,100514.19
2023-03-26T23:51:23.941Z,100542.00
2023-03-26T23:56:30.129Z,100556.16
